Time;durP1;ratioP1;P1;durP2;ratioP2;P2;SDS_P1;SDS_P2;PMS_P1;PMS_P2;Temp;Humidity;BMP_temperature;BMP_pressure;BME280_temperature;BME280_humidity;BME280_pressure;Samples;Min_cycle;Max_cycle;Signal;HPM_P1;HPM_P2
2022/09/10 00:01:09;;;;;;;5.10;2.70;;;;;;;;;;5072311;28;20035;-75
2022/09/10 00:03:34;;;;;;;4.13;1.85;;;;;;;;;;5072450;28;20032;-75
2022/09/10 00:06:03;;;;;;;1.38;1.02;;;;;;;;;;5090605;28;20388;-76
2022/09/10 00:08:29;;;;;;;6.20;1.33;;;;;;;;;;5072294;28;20035;-75
2022/09/10 00:10:56;;;;;;;2.00;1.00;;;;;;;;;;5072715;28;20038;-75
2022/09/10 00:13:23;;;;;;;6.15;1.33;;;;;;;;;;5094376;28;20789;-76
2022/09/10 00:15:53;;;;;;;4.50;1.30;;;;;;;;;;5076439;28;20024;-76
2022/09/10 00:18:21;;;;;;;3.40;0.95;;;;;;;;;;5094672;28;20055;-77
2022/09/10 00:20:57;;;;;;;0.68;0.68;;;;;;;;;;5077288;28;20032;-77
2022/09/10 00:23:28;;;;;;;7.90;1.35;;;;;;;;;;5094005;28;20028;-76
2022/09/10 00:25:55;;;;;;;1.40;1.30;;;;;;;;;;5073131;28;20028;-76
2022/09/10 00:28:22;;;;;;;2.85;1.25;;;;;;;;;;5056001;28;20113;-76
2022/09/10 00:30:49;;;;;;;3.25;0.60;;;;;;;;;;5055926;28;20064;-76
2022/09/10 00:33:17;;;;;;;1.75;0.65;;;;;;;;;;5073907;28;20106;-75
2022/09/10 00:35:43;;;;;;;2.75;1.00;;;;;;;;;;5074071;28;20029;-77
2022/09/10 00:38:10;;;;;;;1.40;0.77;;;;;;;;;;5055705;28;20526;-77
2022/09/10 00:40:36;;;;;;;0.70;0.50;;;;;;;;;;5055933;28;20055;-77
2022/09/10 00:43:02;;;;;;;1.08;0.73;;;;;;;;;;5055855;28;20020;-76
2022/09/10 00:45:30;;;;;;;2.28;0.85;;;;;;;;;;5073905;28;20032;-77
2022/09/10 00:47:59;;;;;;;5.20;0.82;;;;;;;;;;5056028;28;20032;-76
2022/09/10 00:50:28;;;;;;;2.78;0.80;;;;;;;;;;5056027;28;20051;-76
2022/09/10 00:52:57;;;;;;;1.10;0.82;;;;;;;;;;5073712;28;20299;-76
2022/09/10 00:55:23;;;;;;;1.38;0.70;;;;;;;;;;5055760;28;20119;-77
2022/09/10 00:57:53;;;;;;;2.42;0.85;;;;;;;;;;5055788;28;20462;-76
2022/09/10 01:00:18;;;;;;;2.45;1.10;;;;;;;;;;5055329;28;20031;-76
2022/09/10 01:02:44;;;;;;;1.13;0.77;;;;;;;;;;5073503;28;20028;-76
2022/09/10 01:05:10;;;;;;;0.60;0.60;;;;;;;;;;5055629;28;20223;-76
2022/09/10 01:07:36;;;;;;;2.28;0.75;;;;;;;;;;5074644;28;20066;-76
2022/09/10 01:10:11;;;;;;;3.72;0.80;;;;;;;;;;5073769;28;20528;-77
2022/09/10 01:13:24;;;;;;;1.95;1.10;;;;;;;;;;5055268;28;20064;-77
2022/09/10 01:16:14;;;;;;;0.80;0.80;;;;;;;;;;5001160;28;20467;-77
2022/09/10 01:19:18;;;;;;;1.92;1.00;;;;;;;;;;5055393;28;20043;-76
2022/09/10 01:22:34;;;;;;;3.72;0.80;;;;;;;;;;5073348;28;20024;-76
2022/09/10 01:25:26;;;;;;;2.83;0.80;;;;;;;;;;5002305;28;20040;-76
2022/09/10 01:28:00;;;;;;;0.85;0.85;;;;;;;;;;5055543;28;20024;-75
2022/09/10 01:30:33;;;;;;;2.05;0.90;;;;;;;;;;5055208;28;20040;-75
2022/09/10 01:33:14;;;;;;;2.50;0.93;;;;;;;;;;5055215;28;20025;-76
2022/09/10 01:35:52;;;;;;;1.45;0.93;;;;;;;;;;5075085;28;20599;-75
2022/09/10 01:38:26;;;;;;;1.60;0.77;;;;;;;;;;5075703;28;20449;-75
2022/09/10 01:40:53;;;;;;;1.70;0.95;;;;;;;;;;5058631;28;20119;-75
2022/09/10 01:43:18;;;;;;;0.80;0.60;;;;;;;;;;5056674;28;20025;-76
2022/09/10 01:45:50;;;;;;;1.33;0.68;;;;;;;;;;5056498;28;20028;-76
2022/09/10 01:48:33;;;;;;;1.92;0.75;;;;;;;;;;5073538;28;20036;-76
2022/09/10 01:51:08;;;;;;;4.95;1.30;;;;;;;;;;5056198;28;20024;-77
2022/09/10 01:54:11;;;;;;;1.20;0.90;;;;;;;;;;5072702;28;20021;-76
2022/09/10 01:56:52;;;;;;;0.80;0.80;;;;;;;;;;5072823;28;20028;-76
2022/09/10 01:59:42;;;;;;;1.27;0.80;;;;;;;;;;5054644;28;20025;-77
2022/09/10 02:02:25;;;;;;;1.38;1.10;;;;;;;;;;5072759;28;20118;-77
2022/09/10 02:04:52;;;;;;;5.32;1.15;;;;;;;;;;5054229;28;20503;-76
2022/09/10 02:07:21;;;;;;;1.55;0.70;;;;;;;;;;5054280;28;20320;-77
2022/09/10 02:09:49;;;;;;;5.00;1.10;;;;;;;;;;5054609;28;20024;-76
2022/09/10 02:12:19;;;;;;;1.60;0.82;;;;;;;;;;5072168;28;20373;-76
2022/09/10 02:14:49;;;;;;;2.35;0.88;;;;;;;;;;5072332;28;20354;-77
2022/09/10 02:17:15;;;;;;;1.98;0.90;;;;;;;;;;5072279;28;20379;-77
2022/09/10 02:19:43;;;;;;;4.35;1.20;;;;;;;;;;5054157;28;20025;-77
2022/09/10 02:22:09;;;;;;;2.25;1.00;;;;;;;;;;5054251;28;20461;-76
2022/09/10 02:24:35;;;;;;;3.65;1.00;;;;;;;;;;5060924;28;20021;-77
2022/09/10 02:27:01;;;;;;;1.02;0.77;;;;;;;;;;5072850;28;20055;-77
2022/09/10 02:29:26;;;;;;;1.20;0.75;;;;;;;;;;5051142;28;20049;-77
2022/09/10 02:31:52;;;;;;;2.35;1.13;;;;;;;;;;5050795;28;20033;-76
2022/09/10 02:34:19;;;;;;;1.05;0.70;;;;;;;;;;5050012;28;20075;-76
2022/09/10 02:36:45;;;;;;;1.80;0.70;;;;;;;;;;5050599;28;20040;-76
2022/09/10 02:39:10;;;;;;;1.33;0.73;;;;;;;;;;5051714;28;20021;-77
2022/09/10 02:41:40;;;;;;;4.50;1.00;;;;;;;;;;5051948;28;20104;-76
2022/09/10 02:44:06;;;;;;;0.70;0.70;;;;;;;;;;5051866;28;20023;-77
2022/09/10 02:46:31;;;;;;;1.30;0.90;;;;;;;;;;5050438;28;20059;-77
2022/09/10 02:48:58;;;;;;;3.78;0.90;;;;;;;;;;5051705;28;20045;-76
2022/09/10 02:51:23;;;;;;;3.42;0.90;;;;;;;;;;5050426;28;20033;-77
2022/09/10 02:53:49;;;;;;;4.10;0.77;;;;;;;;;;5052063;28;20039;-77
2022/09/10 02:56:18;;;;;;;2.47;0.95;;;;;;;;;;5051398;28;20155;-77
2022/09/10 02:58:44;;;;;;;2.88;0.80;;;;;;;;;;5051432;28;20387;-76
2022/09/10 03:01:17;;;;;;;1.40;0.90;;;;;;;;;;5051463;28;20024;-76
2022/09/10 03:03:49;;;;;;;1.98;0.73;;;;;;;;;;5049942;28;20040;-76
2022/09/10 03:06:14;;;;;;;1.95;0.85;;;;;;;;;;5049853;28;20029;-76
2022/09/10 03:08:40;;;;;;;1.48;0.90;;;;;;;;;;5051150;28;20120;-76
2022/09/10 03:11:06;;;;;;;7.55;1.17;;;;;;;;;;5049768;28;20119;-76
2022/09/10 03:13:31;;;;;;;3.33;1.20;;;;;;;;;;5051120;28;20057;-76
2022/09/10 03:15:57;;;;;;;4.28;1.73;;;;;;;;;;5049590;28;20056;-76
2022/09/10 03:18:23;;;;;;;1.02;0.80;;;;;;;;;;5050845;28;20071;-75
2022/09/10 03:20:50;;;;;;;2.05;0.75;;;;;;;;;;5049988;28;20037;-75
2022/09/10 03:23:16;;;;;;;1.80;0.80;;;;;;;;;;5050014;28;20111;-76
2022/09/10 03:25:42;;;;;;;4.32;1.10;;;;;;;;;;5051131;28;20039;-76
2022/09/10 03:28:09;;;;;;;0.70;0.70;;;;;;;;;;5049729;28;20073;-76
2022/09/10 03:30:36;;;;;;;4.20;1.00;;;;;;;;;;5064589;28;20162;-76
2022/09/10 03:33:02;;;;;;;4.13;0.95;;;;;;;;;;5052982;28;20031;-76
2022/09/10 03:35:27;;;;;;;4.30;1.10;;;;;;;;;;5052526;28;20028;-76
2022/09/10 03:37:53;;;;;;;3.65;1.38;;;;;;;;;;5052800;28;20024;-76
2022/09/10 03:40:18;;;;;;;2.33;1.13;;;;;;;;;;5070900;28;20071;-76
2022/09/10 03:42:45;;;;;;;3.47;1.00;;;;;;;;;;5071776;28;20028;-76
2022/09/10 03:45:10;;;;;;;2.95;1.08;;;;;;;;;;5052572;28;20036;-75
2022/09/10 03:47:36;;;;;;;1.33;1.00;;;;;;;;;;5070280;28;20038;-77
2022/09/10 03:50:03;;;;;;;3.00;1.10;;;;;;;;;;5070993;28;20027;-77
2022/09/10 03:52:29;;;;;;;1.73;1.08;;;;;;;;;;5052395;28;20033;-77
2022/09/10 03:54:55;;;;;;;2.90;0.93;;;;;;;;;;5052819;28;20059;-76
2022/09/10 03:57:21;;;;;;;2.75;1.10;;;;;;;;;;5052256;28;20619;-75
2022/09/10 03:59:46;;;;;;;2.13;1.40;;;;;;;;;;5070114;28;20082;-76
2022/09/10 04:02:13;;;;;;;1.35;1.02;;;;;;;;;;5070365;28;20031;-76
2022/09/10 04:04:39;;;;;;;1.75;1.45;;;;;;;;;;5070295;28;20036;-75
2022/09/10 04:07:05;;;;;;;1.25;0.90;;;;;;;;;;5052502;28;20028;-76
2022/09/10 04:09:32;;;;;;;4.15;1.35;;;;;;;;;;5069932;28;20063;-76
2022/09/10 04:11:58;;;;;;;2.90;1.00;;;;;;;;;;5052093;28;20040;-76
2022/09/10 04:14:25;;;;;;;5.68;1.40;;;;;;;;;;5052236;28;20024;-76
2022/09/10 04:16:51;;;;;;;0.98;0.98;;;;;;;;;;5070587;28;20111;-77
2022/09/10 04:19:17;;;;;;;1.50;0.82;;;;;;;;;;5052034;28;20528;-77
2022/09/10 04:21:42;;;;;;;1.17;1.02;;;;;;;;;;5051995;28;20028;-77
2022/09/10 04:24:11;;;;;;;1.92;1.30;;;;;;;;;;5052255;28;20453;-76
2022/09/10 04:26:36;;;;;;;2.90;1.30;;;;;;;;;;5051944;28;20032;-76
2022/09/10 04:29:02;;;;;;;2.13;1.33;;;;;;;;;;5069938;28;20046;-76
2022/09/10 04:31:28;;;;;;;4.40;1.10;;;;;;;;;;5069957;28;20107;-76
2022/09/10 04:33:53;;;;;;;1.55;1.20;;;;;;;;;;5052288;28;20029;-76
2022/09/10 04:36:19;;;;;;;1.60;1.20;;;;;;;;;;5070093;28;20025;-77
2022/09/10 04:38:45;;;;;;;1.42;1.13;;;;;;;;;;5052257;28;20029;-76
2022/09/10 04:41:11;;;;;;;4.68;1.38;;;;;;;;;;5052170;28;20039;-77
2022/09/10 04:43:36;;;;;;;5.20;1.42;;;;;;;;;;5052429;28;20025;-77
2022/09/10 04:46:02;;;;;;;5.00;1.25;;;;;;;;;;5052091;28;20040;-77
2022/09/10 04:48:28;;;;;;;1.77;1.23;;;;;;;;;;5052278;28;20028;-76
2022/09/10 04:50:53;;;;;;;6.47;1.30;;;;;;;;;;5052223;28;20035;-76
2022/09/10 04:53:20;;;;;;;2.05;1.00;;;;;;;;;;5070565;28;20036;-76
2022/09/10 04:55:48;;;;;;;4.22;1.20;;;;;;;;;;5052149;28;20028;-75
2022/09/10 04:58:13;;;;;;;3.10;1.20;;;;;;;;;;5072955;28;20060;-76
2022/09/10 05:00:39;;;;;;;5.20;1.58;;;;;;;;;;5074003;28;20113;-75
2022/09/10 05:03:06;;;;;;;2.67;1.60;;;;;;;;;;5074343;28;20048;-76
2022/09/10 05:05:32;;;;;;;6.75;1.42;;;;;;;;;;5055945;28;20064;-77
2022/09/10 05:07:59;;;;;;;3.38;1.27;;;;;;;;;;5056085;28;20079;-77
2022/09/10 05:10:26;;;;;;;3.17;1.35;;;;;;;;;;5073401;28;20024;-77
2022/09/10 05:12:53;;;;;;;1.58;1.15;;;;;;;;;;5055792;28;20032;-80
2022/09/10 05:15:18;;;;;;;3.03;1.25;;;;;;;;;;5073654;28;20107;-80
2022/09/10 05:17:44;;;;;;;2.83;1.35;;;;;;;;;;5073117;28;20107;-81
2022/09/10 05:20:10;;;;;;;4.00;1.20;;;;;;;;;;5055333;28;20028;-80
2022/09/10 05:22:36;;;;;;;1.13;1.02;;;;;;;;;;5074230;28;20540;-80
2022/09/10 05:25:02;;;;;;;1.63;1.40;;;;;;;;;;5069223;28;20063;-80
2022/09/10 05:27:27;;;;;;;3.10;1.17;;;;;;;;;;5075482;28;20571;-81
2022/09/10 05:29:53;;;;;;;4.63;1.02;;;;;;;;;;5075290;28;20125;-79
2022/09/10 05:32:18;;;;;;;4.97;1.20;;;;;;;;;;5093224;28;20028;-80
2022/09/10 05:34:47;;;;;;;2.53;1.30;;;;;;;;;;5075311;28;20032;-79
2022/09/10 05:37:17;;;;;;;4.22;1.05;;;;;;;;;;5075348;28;20775;-80
2022/09/10 05:39:43;;;;;;;5.28;1.30;;;;;;;;;;5074901;28;20109;-79
2022/09/10 05:42:09;;;;;;;1.25;1.15;;;;;;;;;;5075980;28;20020;-78
2022/09/10 05:44:34;;;;;;;1.17;1.08;;;;;;;;;;5094471;28;20464;-80
2022/09/10 05:47:00;;;;;;;1.48;1.35;;;;;;;;;;5077327;28;20074;-80
2022/09/10 05:49:25;;;;;;;1.75;1.65;;;;;;;;;;5079461;28;20040;-79
2022/09/10 05:51:51;;;;;;;1.15;1.08;;;;;;;;;;5080165;28;20036;-79
2022/09/10 05:54:17;;;;;;;2.28;1.35;;;;;;;;;;5078316;28;20081;-79
2022/09/10 05:56:43;;;;;;;3.22;1.20;;;;;;;;;;5077512;28;20387;-80
2022/09/10 05:59:09;;;;;;;6.70;2.08;;;;;;;;;;5075970;28;20024;-80
2022/09/10 06:01:35;;;;;;;1.52;1.35;;;;;;;;;;5075050;28;20035;-79
2022/09/10 06:04:01;;;;;;;2.42;1.50;;;;;;;;;;5093811;28;20024;-80
2022/09/10 06:06:27;;;;;;;2.50;1.50;;;;;;;;;;5075206;28;20405;-80
2022/09/10 06:08:53;;;;;;;2.60;1.75;;;;;;;;;;5092824;28;20158;-80
2022/09/10 06:11:19;;;;;;;4.53;1.40;;;;;;;;;;5078322;28;20057;-80
2022/09/10 06:13:45;;;;;;;5.82;1.23;;;;;;;;;;5094208;28;20103;-81
2022/09/10 06:16:11;;;;;;;2.20;1.45;;;;;;;;;;5077242;28;20074;-78
2022/09/10 06:18:37;;;;;;;5.00;1.30;;;;;;;;;;5092893;28;20024;-80
2022/09/10 06:21:14;;;;;;;1.92;1.42;;;;;;;;;;5094246;28;20036;-78
2022/09/10 06:23:40;;;;;;;3.75;1.63;;;;;;;;;;5073009;28;20489;-80
2022/09/10 06:26:11;;;;;;;1.33;1.13;;;;;;;;;;5056035;28;20044;-79
2022/09/10 06:28:37;;;;;;;2.22;1.40;;;;;;;;;;5073847;28;20047;-80
2022/09/10 06:31:03;;;;;;;1.40;0.95;;;;;;;;;;5054660;28;20053;-81
2022/09/10 06:33:29;;;;;;;1.13;1.02;;;;;;;;;;5053693;28;20059;-80
2022/09/10 06:35:56;;;;;;;2.00;1.00;;;;;;;;;;5053883;28;20029;-80
2022/09/10 06:38:23;;;;;;;1.75;1.38;;;;;;;;;;5071992;28;20124;-80
2022/09/10 06:40:56;;;;;;;5.95;1.88;;;;;;;;;;5071409;28;20154;-80
2022/09/10 06:43:24;;;;;;;2.35;1.40;;;;;;;;;;5038188;28;20563;-80
2022/09/10 06:45:51;;;;;;;5.60;1.50;;;;;;;;;;5071938;28;20074;-80
2022/09/10 06:48:18;;;;;;;1.42;1.15;;;;;;;;;;5055202;28;20416;-79
2022/09/10 06:50:57;;;;;;;4.22;1.45;;;;;;;;;;5072365;28;20537;-81
2022/09/10 06:53:25;;;;;;;3.05;1.17;;;;;;;;;;5054530;28;20054;-80
2022/09/10 06:55:51;;;;;;;1.25;0.80;;;;;;;;;;5055053;28;20032;-80
2022/09/10 06:58:22;;;;;;;2.58;0.98;;;;;;;;;;5072399;28;20050;-80
2022/09/10 07:00:49;;;;;;;1.90;1.30;;;;;;;;;;5072415;28;20099;-79
2022/09/10 07:03:16;;;;;;;2.92;1.00;;;;;;;;;;5054572;28;20028;-79
2022/09/10 07:05:44;;;;;;;1.27;0.82;;;;;;;;;;5054099;28;20111;-80
2022/09/10 07:08:11;;;;;;;2.53;0.80;;;;;;;;;;5054336;28;20037;-80
2022/09/10 07:10:37;;;;;;;3.80;1.00;;;;;;;;;;5054919;28;20143;-81
2022/09/10 07:13:03;;;;;;;1.42;0.70;;;;;;;;;;5054064;28;20027;-81
2022/09/10 07:15:29;;;;;;;1.48;0.75;;;;;;;;;;5055075;28;20115;-78
2022/09/10 07:17:55;;;;;;;2.15;0.90;;;;;;;;;;5054379;28;20035;-79
2022/09/10 07:20:22;;;;;;;2.03;1.00;;;;;;;;;;5073741;28;20044;-79
2022/09/10 07:22:57;;;;;;;0.70;0.70;;;;;;;;;;5071668;28;20388;-80
2022/09/10 07:25:25;;;;;;;2.92;0.95;;;;;;;;;;5069499;28;20054;-80
2022/09/10 07:27:51;;;;;;;4.00;1.27;;;;;;;;;;5092822;28;20487;-81
2022/09/10 07:30:17;;;;;;;5.03;1.23;;;;;;;;;;5093057;28;20044;-82
2022/09/10 07:32:45;;;;;;;2.90;0.90;;;;;;;;;;5092705;28;20052;-80
2022/09/10 07:35:12;;;;;;;1.02;0.70;;;;;;;;;;5075048;28;20039;-80
2022/09/10 07:37:38;;;;;;;0.70;0.68;;;;;;;;;;5075123;28;20038;-80
2022/09/10 07:40:04;;;;;;;3.25;1.48;;;;;;;;;;5074285;28;20024;-80
2022/09/10 07:42:30;;;;;;;2.17;1.05;;;;;;;;;;5073800;28;20118;-79
2022/09/10 07:44:55;;;;;;;2.35;0.80;;;;;;;;;;5073067;28;20119;-80
2022/09/10 07:47:22;;;;;;;4.20;0.85;;;;;;;;;;5091405;28;20127;-79
2022/09/10 07:49:48;;;;;;;3.90;1.05;;;;;;;;;;5073681;28;20081;-80
2022/09/10 07:52:14;;;;;;;4.28;1.00;;;;;;;;;;5091935;28;20047;-80
2022/09/10 07:54:39;;;;;;;1.45;0.82;;;;;;;;;;5074877;28;20024;-80
2022/09/10 07:57:05;;;;;;;1.95;0.98;;;;;;;;;;5073238;28;20051;-80
2022/09/10 07:59:31;;;;;;;1.58;0.88;;;;;;;;;;5072349;28;20024;-80
2022/09/10 08:01:58;;;;;;;1.65;0.80;;;;;;;;;;5072296;28;20081;-79
2022/09/10 08:04:25;;;;;;;2.30;0.82;;;;;;;;;;5072356;28;20031;-79
2022/09/10 08:06:50;;;;;;;1.95;1.33;;;;;;;;;;5072071;28;20031;-78
2022/09/10 08:09:20;;;;;;;2.75;1.27;;;;;;;;;;5072374;28;20068;-80
2022/09/10 08:11:45;;;;;;;1.42;1.10;;;;;;;;;;5072017;28;20057;-80
2022/09/10 08:14:12;;;;;;;2.75;1.77;;;;;;;;;;5072265;28;20392;-80
2022/09/10 08:16:37;;;;;;;1.95;1.25;;;;;;;;;;5072145;28;20456;-81
2022/09/10 08:19:03;;;;;;;4.80;1.05;;;;;;;;;;5072313;28;20031;-81
2022/09/10 08:21:29;;;;;;;1.15;0.80;;;;;;;;;;5090644;28;20016;-80
2022/09/10 08:23:54;;;;;;;4.05;1.00;;;;;;;;;;5068047;28;20016;-80
2022/09/10 08:26:22;;;;;;;1.77;0.98;;;;;;;;;;5051865;28;20112;-80
2022/09/10 08:28:48;;;;;;;5.97;1.25;;;;;;;;;;5051715;28;20131;-79
2022/09/10 08:31:15;;;;;;;1.15;0.90;;;;;;;;;;5048717;28;20041;-80
2022/09/10 08:33:45;;;;;;;6.50;1.50;;;;;;;;;;5051717;28;20025;-80
2022/09/10 08:36:12;;;;;;;3.60;1.00;;;;;;;;;;5054713;28;20099;-79
2022/09/10 08:38:38;;;;;;;4.10;1.35;;;;;;;;;;5053248;28;20059;-79
2022/09/10 08:41:25;;;;;;;2.83;1.10;;;;;;;;;;5053077;28;20059;-80
2022/09/10 08:43:57;;;;;;;2.70;1.20;;;;;;;;;;5040529;28;20029;-80
2022/09/10 08:46:28;;;;;;;3.65;1.08;;;;;;;;;;5055180;28;20035;-81
2022/09/10 08:49:08;;;;;;;4.07;1.48;;;;;;;;;;5054439;28;20024;-82
2022/09/10 08:51:49;;;;;;;6.88;1.40;;;;;;;;;;5054484;28;20024;-80
2022/09/10 08:54:49;;;;;;;3.28;1.75;;;;;;;;;;5053499;28;20024;-81
2022/09/10 08:57:29;;;;;;;1.88;0.90;;;;;;;;;;5045694;28;20111;-81
2022/09/10 08:59:57;;;;;;;2.08;1.02;;;;;;;;;;5052249;28;20029;-80
2022/09/10 09:02:41;;;;;;;2.78;2.22;;;;;;;;;;5054099;28;20113;-80
2022/09/10 09:05:27;;;;;;;4.82;0.90;;;;;;;;;;5052307;28;20036;-80
2022/09/10 09:07:54;;;;;;;2.10;1.15;;;;;;;;;;5052376;28;20271;-80
2022/09/10 09:10:47;;;;;;;6.97;1.85;;;;;;;;;;5057598;28;20460;-80
2022/09/10 09:13:31;;;;;;;3.65;1.10;;;;;;;;;;5054230;28;20029;-80
2022/09/10 09:15:56;;;;;;;4.10;1.10;;;;;;;;;;5052384;28;20035;-80
2022/09/10 09:18:48;;;;;;;3.45;1.08;;;;;;;;;;5051626;28;20020;-80
2022/09/10 09:21:26;;;;;;;2.72;1.23;;;;;;;;;;5052004;28;20024;-80
2022/09/10 09:23:57;;;;;;;2.92;0.93;;;;;;;;;;5055234;28;20031;-79
2022/09/10 09:26:33;;;;;;;2.30;1.05;;;;;;;;;;5071571;28;20027;-80
2022/09/10 09:29:04;;;;;;;1.58;0.95;;;;;;;;;;5071960;28;20055;-78
2022/09/10 09:31:33;;;;;;;2.90;0.85;;;;;;;;;;5075545;28;20037;-80
2022/09/10 09:34:04;;;;;;;1.52;0.90;;;;;;;;;;5094213;28;20115;-80
2022/09/10 09:36:37;;;;;;;1.08;1.00;;;;;;;;;;5074925;28;20557;-80
2022/09/10 09:39:15;;;;;;;1.77;1.10;;;;;;;;;;5074701;28;20494;-81
2022/09/10 09:41:58;;;;;;;22.35;5.82;;;;;;;;;;5075558;28;20027;-79
2022/09/10 09:44:35;;;;;;;2.38;1.10;;;;;;;;;;5073466;28;20039;-80
2022/09/10 09:47:01;;;;;;;6.05;2.13;;;;;;;;;;5074655;28;20030;-79
2022/09/10 09:49:27;;;;;;;1.83;1.25;;;;;;;;;;5093089;28;20499;-80
2022/09/10 09:51:52;;;;;;;3.72;1.17;;;;;;;;;;5074528;28;20101;-81
2022/09/10 09:54:28;;;;;;;1.10;0.90;;;;;;;;;;5093320;28;20636;-80
2022/09/10 09:56:57;;;;;;;5.38;1.40;;;;;;;;;;5075806;28;20023;-81
2022/09/10 09:59:25;;;;;;;2.05;1.13;;;;;;;;;;5078270;28;20028;-79
2022/09/10 10:01:53;;;;;;;4.55;2.03;;;;;;;;;;5080119;28;20437;-80
2022/09/10 10:04:22;;;;;;;2.53;1.30;;;;;;;;;;5083601;28;20416;-80
2022/09/10 10:06:59;;;;;;;1.85;1.25;;;;;;;;;;5083941;28;20035;-80
2022/09/10 10:09:29;;;;;;;3.03;1.55;;;;;;;;;;5080585;28;20024;-80
2022/09/10 10:11:57;;;;;;;3.97;1.73;;;;;;;;;;5075258;28;20031;-80
2022/09/10 10:14:24;;;;;;;1.83;1.48;;;;;;;;;;5076147;28;20565;-81
2022/09/10 10:16:52;;;;;;;5.68;1.45;;;;;;;;;;5092363;28;20024;-78
2022/09/10 10:19:39;;;;;;;11.25;2.95;;;;;;;;;;5092499;28;20032;-82
2022/09/10 10:22:13;;;;;;;5.97;2.13;;;;;;;;;;5074134;28;20072;-80
2022/09/10 10:24:44;;;;;;;1.70;1.40;;;;;;;;;;5063578;28;20025;-81
2022/09/10 10:27:31;;;;;;;7.75;2.42;;;;;;;;;;5053962;28;20032;-80
2022/09/10 10:30:00;;;;;;;2.42;1.52;;;;;;;;;;5071756;28;20070;-81
2022/09/10 10:32:40;;;;;;;14.43;1.90;;;;;;;;;;5054465;28;20075;-81
2022/09/10 10:35:09;;;;;;;6.63;1.80;;;;;;;;;;5073268;28;20046;-81
2022/09/10 10:38:02;;;;;;;5.57;2.20;;;;;;;;;;5054079;28;20300;-81
2022/09/10 10:40:42;;;;;;;4.20;2.50;;;;;;;;;;5072002;28;20036;-80
2022/09/10 10:43:21;;;;;;;2.33;1.38;;;;;;;;;;5074897;28;20020;-81
2022/09/10 10:45:47;;;;;;;3.28;1.90;;;;;;;;;;5054201;28;20036;-80
2022/09/10 10:48:31;;;;;;;3.80;2.10;;;;;;;;;;5053988;28;20025;-80
2022/09/10 10:51:08;;;;;;;5.60;1.63;;;;;;;;;;5054304;28;20056;-81
2022/09/10 10:53:54;;;;;;;2.80;1.33;;;;;;;;;;5055822;28;20480;-79
2022/09/10 10:56:46;;;;;;;5.50;1.50;;;;;;;;;;5071031;28;20096;-80
2022/09/10 10:59:49;;;;;;;2.22;1.52;;;;;;;;;;5053546;28;20036;-80
2022/09/10 11:02:37;;;;;;;4.38;1.13;;;;;;;;;;5053508;28;20425;-81
2022/09/10 11:05:30;;;;;;;2.35;1.25;;;;;;;;;;5052898;28;20119;-79
2022/09/10 11:08:02;;;;;;;4.88;1.45;;;;;;;;;;5071543;28;20032;-80
2022/09/10 11:10:38;;;;;;;7.25;2.20;;;;;;;;;;5053730;28;20036;-80
2022/09/10 11:13:12;;;;;;;2.03;1.13;;;;;;;;;;5071032;28;20032;-79
2022/09/10 11:15:43;;;;;;;4.55;1.60;;;;;;;;;;5070758;28;20040;-80
2022/09/10 11:18:18;;;;;;;2.38;1.27;;;;;;;;;;5054060;28;20035;-79
2022/09/10 11:20:56;;;;;;;1.30;1.20;;;;;;;;;;5052672;28;20032;-81
2022/09/10 11:23:28;;;;;;;3.55;2.15;;;;;;;;;;5052899;28;20388;-81
2022/09/10 11:26:11;;;;;;;3.45;1.35;;;;;;;;;;5053203;28;20030;-79
2022/09/10 11:28:56;;;;;;;2.53;1.35;;;;;;;;;;5052530;28;20032;-80
2022/09/10 11:31:47;;;;;;;4.55;1.30;;;;;;;;;;5031610;28;20111;-78
2022/09/10 11:34:42;;;;;;;3.78;1.05;;;;;;;;;;5071478;28;20065;-79
2022/09/10 11:37:18;;;;;;;3.25;0.93;;;;;;;;;;5071043;28;20048;-79
2022/09/10 11:39:54;;;;;;;2.72;0.90;;;;;;;;;;5052434;28;20055;-79
2022/09/10 11:42:26;;;;;;;1.25;1.00;;;;;;;;;;5052560;28;20022;-80
2022/09/10 11:45:06;;;;;;;2.25;0.90;;;;;;;;;;5070971;28;20472;-80
2022/09/10 11:47:39;;;;;;;4.55;1.17;;;;;;;;;;5071398;28;20016;-79
2022/09/10 11:50:35;;;;;;;1.50;0.70;;;;;;;;;;5052568;28;20055;-80
2022/09/10 11:53:06;;;;;;;3.05;0.90;;;;;;;;;;5070379;28;20032;-80
2022/09/10 11:56:02;;;;;;;1.70;0.90;;;;;;;;;;5052823;28;20038;-80
2022/09/10 11:58:55;;;;;;;0.88;0.80;;;;;;;;;;5049748;28;20504;-80
2022/09/10 12:01:43;;;;;;;4.05;1.48;;;;;;;;;;5048095;28;20071;-82
2022/09/10 12:04:35;;;;;;;2.92;1.42;;;;;;;;;;5052847;28;20067;-79
2022/09/10 12:07:26;;;;;;;3.40;1.45;;;;;;;;;;5069212;28;20016;-80
2022/09/10 12:10:10;;;;;;;3.05;0.75;;;;;;;;;;5051980;28;20016;-80
2022/09/10 12:12:42;;;;;;;2.83;0.70;;;;;;;;;;5052269;28;20021;-80
2022/09/10 12:15:24;;;;;;;2.38;0.63;;;;;;;;;;5052304;28;20045;-80
2022/09/10 12:18:01;;;;;;;1.75;0.77;;;;;;;;;;5070031;28;20032;-80
2022/09/10 12:20:36;;;;;;;6.03;1.23;;;;;;;;;;5052230;28;20035;-80
2022/09/10 12:23:03;;;;;;;5.50;1.73;;;;;;;;;;5052761;28;20028;-81
2022/09/10 12:25:30;;;;;;;0.80;0.70;;;;;;;;;;5069054;28;20476;-80
2022/09/10 12:28:02;;;;;;;2.70;0.88;;;;;;;;;;5072536;28;20028;-80
2022/09/10 12:30:32;;;;;;;;;;;;;;;;;;5073291;28;20040;-80
2022/09/10 12:33:00;;;;;;;4.90;0.52;;;;;;;;;;5076158;28;19942;-81
2022/09/10 12:35:34;;;;;;;3.42;0.50;;;;;;;;;;5090552;28;20035;-81
2022/09/10 12:38:38;;;;;;;2.05;0.80;;;;;;;;;;5072211;28;20043;-79
2022/09/10 12:41:26;;;;;;;2.30;0.60;;;;;;;;;;5074600;28;20047;-80
2022/09/10 12:43:58;;;;;;;1.63;0.60;;;;;;;;;;5064265;28;20039;-79
2022/09/10 12:46:24;;;;;;;1.55;0.57;;;;;;;;;;5074309;28;20035;-80
2022/09/10 12:48:54;;;;;;;1.02;0.60;;;;;;;;;;5072694;28;20027;-80
2022/09/10 12:51:37;;;;;;;9.95;1.17;;;;;;;;;;5072086;28;20026;-81
2022/09/10 12:54:24;;;;;;;2.47;0.68;;;;;;;;;;5072105;28;20024;-80
2022/09/10 12:57:19;;;;;;;6.90;1.05;;;;;;;;;;5072131;28;20024;-79
2022/09/10 12:59:59;;;;;;;3.20;0.70;;;;;;;;;;5090022;28;20031;-79
2022/09/10 13:02:33;;;;;;;2.13;0.95;;;;;;;;;;5071912;28;20051;-79
2022/09/10 13:05:24;;;;;;;3.08;0.63;;;;;;;;;;5071503;28;20039;-80
2022/09/10 13:08:11;;;;;;;1.92;0.63;;;;;;;;;;5079026;28;20127;-79
2022/09/10 13:10:38;;;;;;;1.80;0.60;;;;;;;;;;5072151;28;20028;-79
2022/09/10 13:13:17;;;;;;;5.40;0.90;;;;;;;;;;5071030;28;20387;-79
2022/09/10 13:15:49;;;;;;;1.85;0.60;;;;;;;;;;5089847;28;20556;-81
2022/09/10 13:18:25;;;;;;;0.85;0.47;;;;;;;;;;5072181;28;20024;-79
2022/09/10 13:20:51;;;;;;;4.25;0.90;;;;;;;;;;5074586;28;20378;-79
2022/09/10 13:23:18;;;;;;;10.07;2.38;;;;;;;;;;5074888;28;20028;-80
2022/09/10 13:25:50;;;;;;;0.82;0.60;;;;;;;;;;5074067;28;20044;-80
2022/09/10 13:28:29;;;;;;;1.65;0.73;;;;;;;;;;5054648;28;20029;-79
2022/09/10 13:31:09;;;;;;;2.28;0.80;;;;;;;;;;5072757;28;20041;-79
2022/09/10 13:33:53;;;;;;;0.85;0.45;;;;;;;;;;5054307;28;20051;-80
2022/09/10 13:36:48;;;;;;;2.30;0.60;;;;;;;;;;5055816;28;20515;-80
2022/09/10 13:39:41;;;;;;;4.90;0.70;;;;;;;;;;5056445;28;20044;-80
2022/09/10 13:42:36;;;;;;;7.72;1.23;;;;;;;;;;5054227;28;20020;-79
2022/09/10 13:45:16;;;;;;;27.75;1.13;;;;;;;;;;5053895;28;20021;-79
2022/09/10 13:48:01;;;;;;;2.22;0.50;;;;;;;;;;5054167;28;20065;-79
2022/09/10 13:50:44;;;;;;;1.23;0.60;;;;;;;;;;5054479;28;20218;-80
2022/09/10 13:53:12;;;;;;;1.98;0.60;;;;;;;;;;5072307;28;20032;-81
2022/09/10 13:55:40;;;;;;;1.67;0.60;;;;;;;;;;5055270;28;20302;-79
2022/09/10 13:58:17;;;;;;;2.63;0.90;;;;;;;;;;5072530;28;20085;-79
2022/09/10 14:00:53;;;;;;;1.33;0.80;;;;;;;;;;5054609;28;20024;-79
2022/09/10 14:03:30;;;;;;;2.90;0.73;;;;;;;;;;5054826;28;20036;-79
2022/09/10 14:05:57;;;;;;;3.45;0.63;;;;;;;;;;5071736;28;20121;-79
2022/09/10 14:08:58;;;;;;;27.05;3.10;;;;;;;;;;5073728;28;20016;-79
2022/09/10 14:11:34;;;;;;;1.60;0.98;;;;;;;;;;5057583;28;20052;-79
2022/09/10 14:14:11;;;;;;;4.07;1.85;;;;;;;;;;5077492;28;20549;-80
2022/09/10 14:16:37;;;;;;;3.20;1.70;;;;;;;;;;5086440;28;20032;-80
2022/09/10 14:19:32;;;;;;;2.65;0.98;;;;;;;;;;5084761;28;20031;-78
2022/09/10 14:21:58;;;;;;;2.75;0.93;;;;;;;;;;5072070;28;20033;-78
2022/09/10 14:24:29;;;;;;;2.78;0.77;;;;;;;;;;5065964;28;20456;-78
2022/09/10 14:27:21;;;;;;;2.85;0.57;;;;;;;;;;5074390;28;20073;-79
2022/09/10 14:29:47;;;;;;;7.53;1.13;;;;;;;;;;5072788;28;20063;-80
2022/09/10 14:32:32;;;;;;;1.08;0.57;;;;;;;;;;5073208;28;20020;-80
2022/09/10 14:35:18;;;;;;;1.90;0.50;;;;;;;;;;5073668;28;20028;-79
2022/09/10 14:37:44;;;;;;;3.88;0.70;;;;;;;;;;5073468;28;20639;-80
2022/09/10 14:40:20;;;;;;;3.33;0.80;;;;;;;;;;5073651;28;20038;-79
2022/09/10 14:42:48;;;;;;;1.42;0.70;;;;;;;;;;5074748;28;20020;-81
2022/09/10 14:45:36;;;;;;;3.70;0.90;;;;;;;;;;5092848;28;20016;-79
2022/09/10 14:48:02;;;;;;;1.70;0.60;;;;;;;;;;5074283;28;20046;-78
2022/09/10 14:50:31;;;;;;;4.57;0.85;;;;;;;;;;5073992;28;20539;-79
2022/09/10 14:52:57;;;;;;;2.45;0.95;;;;;;;;;;5091605;28;20031;-79
2022/09/10 14:55:24;;;;;;;3.50;0.65;;;;;;;;;;5056846;28;20566;-80
2022/09/10 14:57:54;;;;;;;7.15;1.23;;;;;;;;;;5073492;28;20025;-79
2022/09/10 15:00:21;;;;;;;2.13;0.88;;;;;;;;;;5073265;28;20032;-80
2022/09/10 15:02:49;;;;;;;1.70;0.60;;;;;;;;;;5073046;28;20023;-79
2022/09/10 15:05:19;;;;;;;5.65;1.10;;;;;;;;;;5073256;28;20031;-79
2022/09/10 15:07:44;;;;;;;2.05;0.60;;;;;;;;;;5091325;28;20024;-80
2022/09/10 15:10:12;;;;;;;6.75;1.33;;;;;;;;;;5073124;28;20028;-80
2022/09/10 15:12:40;;;;;;;22.67;2.03;;;;;;;;;;5073536;28;20032;-80